sensor_id;sensor_type;location;lat;lon;timestamp;P1;durP1;ratioP1;P2;durP2;ratioP2
22172;SDS011;11252;50.596;17.648;2022-10-19T00:03:39;6.63;;;5.40;;
22172;SDS011;11252;50.596;17.648;2022-10-19T00:06:19;8.70;;;6.00;;
22172;SDS011;11252;50.596;17.648;2022-10-19T00:08:55;8.33;;;5.80;;
22172;SDS011;11252;50.596;17.648;2022-10-19T00:11:27;8.67;;;6.43;;
22172;SDS011;11252;50.596;17.648;2022-10-19T00:13:55;6.33;;;5.67;;
22172;SDS011;11252;50.596;17.648;2022-10-19T00:16:26;6.90;;;6.20;;
22172;SDS011;11252;50.596;17.648;2022-10-19T00:18:56;9.40;;;6.47;;
22172;SDS011;11252;50.596;17.648;2022-10-19T00:21:24;7.73;;;6.90;;
22172;SDS011;11252;50.596;17.648;2022-10-19T00:23:52;10.83;;;6.93;;
22172;SDS011;11252;50.596;17.648;2022-10-19T00:26:19;7.40;;;6.60;;
22172;SDS011;11252;50.596;17.648;2022-10-19T00:28:47;6.67;;;5.97;;
22172;SDS011;11252;50.596;17.648;2022-10-19T00:31:16;11.87;;;7.50;;
22172;SDS011;11252;50.596;17.648;2022-10-19T00:33:44;8.57;;;6.83;;
22172;SDS011;11252;50.596;17.648;2022-10-19T00:36:22;8.43;;;7.57;;
22172;SDS011;11252;50.596;17.648;2022-10-19T00:38:52;9.10;;;8.07;;
22172;SDS011;11252;50.596;17.648;2022-10-19T00:41:21;9.43;;;8.00;;
22172;SDS011;11252;50.596;17.648;2022-10-19T00:44:04;10.57;;;7.73;;
22172;SDS011;11252;50.596;17.648;2022-10-19T00:46:39;10.90;;;8.50;;
22172;SDS011;11252;50.596;17.648;2022-10-19T00:49:15;12.67;;;8.97;;
22172;SDS011;11252;50.596;17.648;2022-10-19T00:51:49;14.83;;;9.20;;
22172;SDS011;11252;50.596;17.648;2022-10-19T00:54:20;10.57;;;9.13;;
22172;SDS011;11252;50.596;17.648;2022-10-19T00:56:49;17.73;;;9.50;;
22172;SDS011;11252;50.596;17.648;2022-10-19T00:59:20;12.17;;;9.67;;
22172;SDS011;11252;50.596;17.648;2022-10-19T01:01:51;13.13;;;9.93;;
22172;SDS011;11252;50.596;17.648;2022-10-19T01:04:19;11.87;;;9.57;;
22172;SDS011;11252;50.596;17.648;2022-10-19T01:06:49;12.90;;;10.00;;
22172;SDS011;11252;50.596;17.648;2022-10-19T01:09:18;13.50;;;10.37;;
22172;SDS011;11252;50.596;17.648;2022-10-19T01:14:43;10.70;;;9.60;;
22172;SDS011;11252;50.596;17.648;2022-10-19T01:23:29;17.60;;;11.10;;
22172;SDS011;11252;50.596;17.648;2022-10-19T01:34:31;14.93;;;12.37;;
22172;SDS011;11252;50.596;17.648;2022-10-19T01:37:13;16.80;;;12.87;;
22172;SDS011;11252;50.596;17.648;2022-10-19T01:42:36;15.10;;;12.97;;
22172;SDS011;11252;50.596;17.648;2022-10-19T01:47:54;13.73;;;12.30;;
22172;SDS011;11252;50.596;17.648;2022-10-19T01:50:30;18.57;;;12.17;;
22172;SDS011;11252;50.596;17.648;2022-10-19T01:53:06;17.03;;;12.20;;
22172;SDS011;11252;50.596;17.648;2022-10-19T01:55:36;15.70;;;12.87;;
22172;SDS011;11252;50.596;17.648;2022-10-19T01:58:09;17.27;;;13.40;;
22172;SDS011;11252;50.596;17.648;2022-10-19T02:00:40;17.80;;;13.57;;
22172;SDS011;11252;50.596;17.648;2022-10-19T02:03:11;19.00;;;12.80;;
22172;SDS011;11252;50.596;17.648;2022-10-19T02:05:39;17.67;;;13.73;;
22172;SDS011;11252;50.596;17.648;2022-10-19T02:08:12;19.43;;;13.57;;
22172;SDS011;11252;50.596;17.648;2022-10-19T02:10:44;19.63;;;13.53;;
22172;SDS011;11252;50.596;17.648;2022-10-19T02:13:13;16.60;;;12.77;;
22172;SDS011;11252;50.596;17.648;2022-10-19T02:15:43;17.97;;;14.13;;
22172;SDS011;11252;50.596;17.648;2022-10-19T02:18:15;16.13;;;13.33;;
22172;SDS011;11252;50.596;17.648;2022-10-19T02:20:47;17.87;;;14.33;;
22172;SDS011;11252;50.596;17.648;2022-10-19T02:23:14;19.67;;;13.97;;
22172;SDS011;11252;50.596;17.648;2022-10-19T02:25:46;25.03;;;13.57;;
22172;SDS011;11252;50.596;17.648;2022-10-19T02:28:14;19.27;;;13.17;;
22172;SDS011;11252;50.596;17.648;2022-10-19T02:30:42;14.93;;;13.20;;
22172;SDS011;11252;50.596;17.648;2022-10-19T02:33:09;15.93;;;14.23;;
22172;SDS011;11252;50.596;17.648;2022-10-19T02:35:38;14.53;;;12.77;;
22172;SDS011;11252;50.596;17.648;2022-10-19T02:38:06;19.20;;;13.93;;
22172;SDS011;11252;50.596;17.648;2022-10-19T02:40:39;17.43;;;14.20;;
22172;SDS011;11252;50.596;17.648;2022-10-19T02:43:11;18.20;;;14.80;;
22172;SDS011;11252;50.596;17.648;2022-10-19T02:45:50;19.07;;;13.93;;
22172;SDS011;11252;50.596;17.648;2022-10-19T02:48:27;23.07;;;14.17;;
22172;SDS011;11252;50.596;17.648;2022-10-19T02:50:58;17.10;;;14.43;;
22172;SDS011;11252;50.596;17.648;2022-10-19T02:53:26;17.57;;;13.80;;
22172;SDS011;11252;50.596;17.648;2022-10-19T02:55:54;15.53;;;13.80;;
22172;SDS011;11252;50.596;17.648;2022-10-19T02:58:21;16.97;;;15.07;;
22172;SDS011;11252;50.596;17.648;2022-10-19T03:00:48;17.03;;;14.50;;
22172;SDS011;11252;50.596;17.648;2022-10-19T03:03:16;17.23;;;14.63;;
22172;SDS011;11252;50.596;17.648;2022-10-19T03:05:43;20.17;;;15.97;;
22172;SDS011;11252;50.596;17.648;2022-10-19T03:08:11;17.67;;;14.53;;
22172;SDS011;11252;50.596;17.648;2022-10-19T03:10:38;20.03;;;16.13;;
22172;SDS011;11252;50.596;17.648;2022-10-19T03:13:06;18.47;;;15.53;;
22172;SDS011;11252;50.596;17.648;2022-10-19T03:15:33;20.03;;;15.40;;
22172;SDS011;11252;50.596;17.648;2022-10-19T03:18:01;17.47;;;15.50;;
22172;SDS011;11252;50.596;17.648;2022-10-19T03:20:28;22.57;;;16.00;;
22172;SDS011;11252;50.596;17.648;2022-10-19T03:22:56;18.87;;;14.70;;
22172;SDS011;11252;50.596;17.648;2022-10-19T03:25:26;17.33;;;15.17;;
22172;SDS011;11252;50.596;17.648;2022-10-19T03:27:54;18.57;;;15.10;;
22172;SDS011;11252;50.596;17.648;2022-10-19T03:30:21;16.10;;;14.40;;
22172;SDS011;11252;50.596;17.648;2022-10-19T03:32:48;17.20;;;14.00;;
22172;SDS011;11252;50.596;17.648;2022-10-19T03:35:16;19.73;;;14.73;;
22172;SDS011;11252;50.596;17.648;2022-10-19T03:37:43;19.83;;;15.60;;
22172;SDS011;11252;50.596;17.648;2022-10-19T03:40:11;20.47;;;15.03;;
22172;SDS011;11252;50.596;17.648;2022-10-19T03:42:38;18.20;;;15.43;;
22172;SDS011;11252;50.596;17.648;2022-10-19T03:45:05;17.57;;;14.97;;
22172;SDS011;11252;50.596;17.648;2022-10-19T03:47:34;20.77;;;14.13;;
22172;SDS011;11252;50.596;17.648;2022-10-19T03:50:02;16.40;;;14.63;;
22172;SDS011;11252;50.596;17.648;2022-10-19T03:52:31;19.67;;;14.87;;
22172;SDS011;11252;50.596;17.648;2022-10-19T03:54:59;19.50;;;15.97;;
22172;SDS011;11252;50.596;17.648;2022-10-19T03:57:26;18.93;;;15.77;;
22172;SDS011;11252;50.596;17.648;2022-10-19T03:59:53;22.13;;;17.43;;
22172;SDS011;11252;50.596;17.648;2022-10-19T04:02:21;30.27;;;17.93;;
22172;SDS011;11252;50.596;17.648;2022-10-19T04:04:48;23.17;;;16.83;;
22172;SDS011;11252;50.596;17.648;2022-10-19T04:07:16;20.20;;;16.00;;
22172;SDS011;11252;50.596;17.648;2022-10-19T04:09:43;19.03;;;16.73;;
22172;SDS011;11252;50.596;17.648;2022-10-19T04:12:11;22.67;;;15.40;;
22172;SDS011;11252;50.596;17.648;2022-10-19T04:14:38;21.90;;;17.03;;
22172;SDS011;11252;50.596;17.648;2022-10-19T04:17:22;18.60;;;16.60;;
22172;SDS011;11252;50.596;17.648;2022-10-19T04:19:50;29.20;;;19.63;;
22172;SDS011;11252;50.596;17.648;2022-10-19T04:22:19;21.30;;;16.80;;
22172;SDS011;11252;50.596;17.648;2022-10-19T04:24:46;24.63;;;18.63;;
22172;SDS011;11252;50.596;17.648;2022-10-19T04:27:13;22.63;;;17.87;;
22172;SDS011;11252;50.596;17.648;2022-10-19T04:29:41;21.03;;;16.47;;
22172;SDS011;11252;50.596;17.648;2022-10-19T04:32:08;18.23;;;16.27;;
22172;SDS011;11252;50.596;17.648;2022-10-19T04:34:35;20.57;;;16.30;;
22172;SDS011;11252;50.596;17.648;2022-10-19T04:37:05;21.63;;;16.13;;
22172;SDS011;11252;50.596;17.648;2022-10-19T04:39:32;21.77;;;16.37;;
22172;SDS011;11252;50.596;17.648;2022-10-19T04:42:00;19.37;;;15.70;;
22172;SDS011;11252;50.596;17.648;2022-10-19T04:44:27;20.63;;;16.20;;
22172;SDS011;11252;50.596;17.648;2022-10-19T04:46:54;23.80;;;17.40;;
22172;SDS011;11252;50.596;17.648;2022-10-19T04:49:22;21.20;;;17.20;;
22172;SDS011;11252;50.596;17.648;2022-10-19T04:51:49;22.47;;;17.60;;
22172;SDS011;11252;50.596;17.648;2022-10-19T04:54:17;21.30;;;16.67;;
22172;SDS011;11252;50.596;17.648;2022-10-19T04:56:44;21.07;;;17.60;;
22172;SDS011;11252;50.596;17.648;2022-10-19T04:59:11;24.13;;;18.10;;
22172;SDS011;11252;50.596;17.648;2022-10-19T05:01:38;22.70;;;17.17;;
22172;SDS011;11252;50.596;17.648;2022-10-19T05:04:12;22.30;;;17.30;;
22172;SDS011;11252;50.596;17.648;2022-10-19T05:06:40;23.13;;;17.93;;
22172;SDS011;11252;50.596;17.648;2022-10-19T05:09:07;25.63;;;17.93;;
22172;SDS011;11252;50.596;17.648;2022-10-19T05:11:34;26.47;;;18.53;;
22172;SDS011;11252;50.596;17.648;2022-10-19T05:14:02;26.63;;;18.03;;
22172;SDS011;11252;50.596;17.648;2022-10-19T05:16:29;29.30;;;19.03;;
22172;SDS011;11252;50.596;17.648;2022-10-19T05:18:57;25.23;;;17.87;;
22172;SDS011;11252;50.596;17.648;2022-10-19T05:21:25;30.57;;;18.97;;
22172;SDS011;11252;50.596;17.648;2022-10-19T05:23:54;23.90;;;18.90;;
22172;SDS011;11252;50.596;17.648;2022-10-19T05:26:23;25.50;;;19.57;;
22172;SDS011;11252;50.596;17.648;2022-10-19T05:28:53;23.93;;;18.63;;
22172;SDS011;11252;50.596;17.648;2022-10-19T05:31:24;27.10;;;19.33;;
22172;SDS011;11252;50.596;17.648;2022-10-19T05:33:53;26.50;;;19.33;;
22172;SDS011;11252;50.596;17.648;2022-10-19T05:38:55;32.83;;;21.93;;
22172;SDS011;11252;50.596;17.648;2022-10-19T05:41:24;35.93;;;29.13;;
22172;SDS011;11252;50.596;17.648;2022-10-19T05:43:53;25.63;;;19.10;;
22172;SDS011;11252;50.596;17.648;2022-10-19T05:46:22;30.90;;;21.10;;
22172;SDS011;11252;50.596;17.648;2022-10-19T05:48:50;22.23;;;18.00;;
22172;SDS011;11252;50.596;17.648;2022-10-19T05:51:18;25.97;;;17.73;;
22172;SDS011;11252;50.596;17.648;2022-10-19T05:53:47;26.23;;;17.13;;
22172;SDS011;11252;50.596;17.648;2022-10-19T05:56:16;25.57;;;17.20;;
22172;SDS011;11252;50.596;17.648;2022-10-19T05:58:45;26.57;;;16.57;;
22172;SDS011;11252;50.596;17.648;2022-10-19T06:01:14;25.97;;;15.57;;
22172;SDS011;11252;50.596;17.648;2022-10-19T06:03:44;19.10;;;14.47;;
22172;SDS011;11252;50.596;17.648;2022-10-19T06:06:12;20.33;;;14.13;;
22172;SDS011;11252;50.596;17.648;2022-10-19T06:08:40;19.80;;;14.17;;
22172;SDS011;11252;50.596;17.648;2022-10-19T06:11:09;20.77;;;14.17;;
22172;SDS011;11252;50.596;17.648;2022-10-19T06:13:42;25.27;;;17.17;;
22172;SDS011;11252;50.596;17.648;2022-10-19T06:16:12;22.83;;;14.57;;
22172;SDS011;11252;50.596;17.648;2022-10-19T06:18:41;18.57;;;13.63;;
22172;SDS011;11252;50.596;17.648;2022-10-19T06:21:10;24.03;;;15.13;;
22172;SDS011;11252;50.596;17.648;2022-10-19T06:23:40;18.37;;;13.20;;
22172;SDS011;11252;50.596;17.648;2022-10-19T06:26:09;18.97;;;12.60;;
22172;SDS011;11252;50.596;17.648;2022-10-19T06:28:39;16.27;;;11.33;;
22172;SDS011;11252;50.596;17.648;2022-10-19T06:31:07;13.97;;;11.00;;
22172;SDS011;11252;50.596;17.648;2022-10-19T06:33:35;15.43;;;10.70;;
22172;SDS011;11252;50.596;17.648;2022-10-19T06:36:05;17.90;;;10.57;;
22172;SDS011;11252;50.596;17.648;2022-10-19T06:38:37;16.83;;;9.50;;
22172;SDS011;11252;50.596;17.648;2022-10-19T06:41:05;12.93;;;8.50;;
22172;SDS011;11252;50.596;17.648;2022-10-19T06:43:32;14.17;;;8.10;;
22172;SDS011;11252;50.596;17.648;2022-10-19T06:46:07;12.83;;;8.47;;
22172;SDS011;11252;50.596;17.648;2022-10-19T06:48:41;9.07;;;7.43;;
22172;SDS011;11252;50.596;17.648;2022-10-19T06:51:08;10.40;;;7.13;;
22172;SDS011;11252;50.596;17.648;2022-10-19T06:53:37;13.00;;;7.57;;
22172;SDS011;11252;50.596;17.648;2022-10-19T06:56:05;11.57;;;7.30;;
22172;SDS011;11252;50.596;17.648;2022-10-19T06:58:36;10.40;;;6.80;;
22172;SDS011;11252;50.596;17.648;2022-10-19T07:01:05;12.30;;;6.60;;
22172;SDS011;11252;50.596;17.648;2022-10-19T07:03:36;14.17;;;6.47;;
22172;SDS011;11252;50.596;17.648;2022-10-19T07:06:04;7.83;;;5.87;;
22172;SDS011;11252;50.596;17.648;2022-10-19T07:08:34;10.33;;;6.20;;
22172;SDS011;11252;50.596;17.648;2022-10-19T07:11:04;9.67;;;6.27;;
22172;SDS011;11252;50.596;17.648;2022-10-19T07:13:34;6.90;;;6.20;;
22172;SDS011;11252;50.596;17.648;2022-10-19T07:16:08;12.53;;;6.10;;
22172;SDS011;11252;50.596;17.648;2022-10-19T07:18:45;13.13;;;5.50;;
22172;SDS011;11252;50.596;17.648;2022-10-19T07:21:13;9.77;;;5.60;;
22172;SDS011;11252;50.596;17.648;2022-10-19T07:23:43;6.63;;;4.87;;
22172;SDS011;11252;50.596;17.648;2022-10-19T07:26:16;7.03;;;5.07;;
22172;SDS011;11252;50.596;17.648;2022-10-19T07:28:53;9.87;;;4.93;;
22172;SDS011;11252;50.596;17.648;2022-10-19T07:31:23;9.57;;;4.37;;
22172;SDS011;11252;50.596;17.648;2022-10-19T07:33:52;6.90;;;4.67;;
22172;SDS011;11252;50.596;17.648;2022-10-19T07:36:21;7.67;;;4.30;;
22172;SDS011;11252;50.596;17.648;2022-10-19T07:38:50;7.43;;;4.03;;
22172;SDS011;11252;50.596;17.648;2022-10-19T07:41:19;14.43;;;5.20;;
22172;SDS011;11252;50.596;17.648;2022-10-19T07:43:49;10.43;;;4.60;;
22172;SDS011;11252;50.596;17.648;2022-10-19T07:46:18;12.47;;;4.20;;
22172;SDS011;11252;50.596;17.648;2022-10-19T07:48:47;11.07;;;3.80;;
22172;SDS011;11252;50.596;17.648;2022-10-19T07:51:15;9.27;;;4.07;;
22172;SDS011;11252;50.596;17.648;2022-10-19T07:53:44;11.73;;;3.90;;
22172;SDS011;11252;50.596;17.648;2022-10-19T07:56:16;9.93;;;5.53;;
22172;SDS011;11252;50.596;17.648;2022-10-19T07:58:46;7.43;;;3.43;;
22172;SDS011;11252;50.596;17.648;2022-10-19T08:01:15;8.70;;;4.17;;
22172;SDS011;11252;50.596;17.648;2022-10-19T08:03:47;8.77;;;3.60;;
22172;SDS011;11252;50.596;17.648;2022-10-19T08:06:37;7.57;;;4.00;;
22172;SDS011;11252;50.596;17.648;2022-10-19T08:09:04;8.70;;;3.13;;
22172;SDS011;11252;50.596;17.648;2022-10-19T08:11:33;7.30;;;3.10;;
22172;SDS011;11252;50.596;17.648;2022-10-19T08:14:01;8.90;;;3.47;;
22172;SDS011;11252;50.596;17.648;2022-10-19T08:16:33;9.80;;;3.80;;
22172;SDS011;11252;50.596;17.648;2022-10-19T08:19:05;13.50;;;5.47;;
22172;SDS011;11252;50.596;17.648;2022-10-19T08:21:36;8.17;;;3.30;;
22172;SDS011;11252;50.596;17.648;2022-10-19T08:24:05;10.87;;;3.27;;
22172;SDS011;11252;50.596;17.648;2022-10-19T08:26:34;11.63;;;3.30;;
22172;SDS011;11252;50.596;17.648;2022-10-19T08:29:08;7.40;;;2.90;;
22172;SDS011;11252;50.596;17.648;2022-10-19T08:31:38;7.40;;;2.83;;
22172;SDS011;11252;50.596;17.648;2022-10-19T08:34:10;6.33;;;2.47;;
22172;SDS011;11252;50.596;17.648;2022-10-19T08:36:38;7.57;;;4.37;;
22172;SDS011;11252;50.596;17.648;2022-10-19T08:39:07;9.97;;;3.03;;
22172;SDS011;11252;50.596;17.648;2022-10-19T08:44:44;11.40;;;3.30;;
22172;SDS011;11252;50.596;17.648;2022-10-19T08:50:08;28.10;;;20.77;;
22172;SDS011;11252;50.596;17.648;2022-10-19T08:53:01;17.10;;;8.77;;
22172;SDS011;11252;50.596;17.648;2022-10-19T08:55:56;7.70;;;3.33;;
22172;SDS011;11252;50.596;17.648;2022-10-19T09:04:41;7.67;;;3.30;;
22172;SDS011;11252;50.596;17.648;2022-10-19T09:07:34;12.97;;;3.77;;
22172;SDS011;11252;50.596;17.648;2022-10-19T09:12:48;5.17;;;2.40;;
22172;SDS011;11252;50.596;17.648;2022-10-19T09:15:25;11.30;;;2.73;;
22172;SDS011;11252;50.596;17.648;2022-10-19T09:18:14;4.87;;;2.20;;
22172;SDS011;11252;50.596;17.648;2022-10-19T09:21:01;6.27;;;2.30;;
22172;SDS011;11252;50.596;17.648;2022-10-19T09:26:30;11.03;;;2.63;;
22172;SDS011;11252;50.596;17.648;2022-10-19T09:29:05;6.27;;;2.37;;
22172;SDS011;11252;50.596;17.648;2022-10-19T09:31:42;7.07;;;2.40;;
22172;SDS011;11252;50.596;17.648;2022-10-19T09:34:11;4.90;;;2.50;;
22172;SDS011;11252;50.596;17.648;2022-10-19T09:37:02;8.00;;;3.10;;
22172;SDS011;11252;50.596;17.648;2022-10-19T09:39:29;9.70;;;2.90;;
22172;SDS011;11252;50.596;17.648;2022-10-19T09:45:00;7.63;;;1.80;;
22172;SDS011;11252;50.596;17.648;2022-10-19T09:47:40;4.30;;;1.77;;
22172;SDS011;11252;50.596;17.648;2022-10-19T09:55:42;4.50;;;1.77;;
22172;SDS011;11252;50.596;17.648;2022-10-19T10:06:01;5.80;;;1.70;;
22172;SDS011;11252;50.596;17.648;2022-10-19T10:08:35;31.50;;;11.90;;
22172;SDS011;11252;50.596;17.648;2022-10-19T10:11:08;4.00;;;1.40;;
22172;SDS011;11252;50.596;17.648;2022-10-19T10:13:49;2.13;;;1.20;;
22172;SDS011;11252;50.596;17.648;2022-10-19T10:16:19;2.93;;;1.40;;
22172;SDS011;11252;50.596;17.648;2022-10-19T10:18:53;4.73;;;1.37;;
22172;SDS011;11252;50.596;17.648;2022-10-19T10:21:24;4.03;;;1.13;;
22172;SDS011;11252;50.596;17.648;2022-10-19T10:24:04;2.70;;;1.07;;
22172;SDS011;11252;50.596;17.648;2022-10-19T10:26:43;3.73;;;1.23;;
22172;SDS011;11252;50.596;17.648;2022-10-19T10:29:28;1.97;;;1.27;;
22172;SDS011;11252;50.596;17.648;2022-10-19T10:32:02;4.87;;;1.20;;
22172;SDS011;11252;50.596;17.648;2022-10-19T10:35:02;3.30;;;1.13;;
22172;SDS011;11252;50.596;17.648;2022-10-19T10:37:35;3.80;;;1.50;;
22172;SDS011;11252;50.596;17.648;2022-10-19T10:40:22;2.77;;;1.53;;
22172;SDS011;11252;50.596;17.648;2022-10-19T10:43:05;2.90;;;1.00;;
22172;SDS011;11252;50.596;17.648;2022-10-19T10:45:43;5.03;;;2.70;;
22172;SDS011;11252;50.596;17.648;2022-10-19T10:48:19;4.70;;;1.00;;
22172;SDS011;11252;50.596;17.648;2022-10-19T10:50:58;4.47;;;1.97;;
22172;SDS011;11252;50.596;17.648;2022-10-19T10:53:30;2.83;;;1.13;;
22172;SDS011;11252;50.596;17.648;2022-10-19T10:56:24;3.07;;;1.17;;
22172;SDS011;11252;50.596;17.648;2022-10-19T10:58:59;4.33;;;1.80;;
22172;SDS011;11252;50.596;17.648;2022-10-19T11:01:38;2.63;;;1.13;;
22172;SDS011;11252;50.596;17.648;2022-10-19T11:04:08;3.97;;;1.40;;
22172;SDS011;11252;50.596;17.648;2022-10-19T11:06:40;4.73;;;1.77;;
22172;SDS011;11252;50.596;17.648;2022-10-19T11:09:24;3.27;;;1.30;;
22172;SDS011;11252;50.596;17.648;2022-10-19T11:12:12;4.50;;;1.70;;
22172;SDS011;11252;50.596;17.648;2022-10-19T11:17:16;1.80;;;1.13;;
22172;SDS011;11252;50.596;17.648;2022-10-19T11:19:47;3.77;;;1.20;;
22172;SDS011;11252;50.596;17.648;2022-10-19T11:26:06;1.43;;;0.60;;
22172;SDS011;11252;50.596;17.648;2022-10-19T11:28:33;2.13;;;0.70;;
22172;SDS011;11252;50.596;17.648;2022-10-19T11:56:54;3.33;;;1.00;;
22172;SDS011;11252;50.596;17.648;2022-10-19T12:05:34;1.47;;;1.07;;
22172;SDS011;11252;50.596;17.648;2022-10-19T12:08:56;2.43;;;1.10;;
22172;SDS011;11252;50.596;17.648;2022-10-19T12:14:05;4.60;;;0.83;;
22172;SDS011;11252;50.596;17.648;2022-10-19T12:16:40;4.27;;;1.30;;
22172;SDS011;11252;50.596;17.648;2022-10-19T12:19:13;5.60;;;0.97;;
22172;SDS011;11252;50.596;17.648;2022-10-19T12:21:47;3.87;;;0.80;;
22172;SDS011;11252;50.596;17.648;2022-10-19T12:24:17;3.30;;;1.07;;
22172;SDS011;11252;50.596;17.648;2022-10-19T12:26:49;3.70;;;1.90;;
22172;SDS011;11252;50.596;17.648;2022-10-19T12:29:22;1.40;;;0.80;;
22172;SDS011;11252;50.596;17.648;2022-10-19T12:31:57;2.50;;;0.80;;
22172;SDS011;11252;50.596;17.648;2022-10-19T12:37:11;4.40;;;1.07;;
22172;SDS011;11252;50.596;17.648;2022-10-19T12:40:02;5.97;;;1.10;;
22172;SDS011;11252;50.596;17.648;2022-10-19T12:45:35;1.97;;;1.30;;
22172;SDS011;11252;50.596;17.648;2022-10-19T12:48:20;2.37;;;1.20;;
22172;SDS011;11252;50.596;17.648;2022-10-19T13:01:39;2.50;;;1.17;;
22172;SDS011;11252;50.596;17.648;2022-10-19T13:04:13;1.93;;;1.10;;
22172;SDS011;11252;50.596;17.648;2022-10-19T13:09:33;2.13;;;1.10;;
22172;SDS011;11252;50.596;17.648;2022-10-19T13:14:57;5.37;;;1.10;;
22172;SDS011;11252;50.596;17.648;2022-10-19T13:27:43;2.53;;;1.10;;
22172;SDS011;11252;50.596;17.648;2022-10-19T13:38:34;2.80;;;1.47;;
22172;SDS011;11252;50.596;17.648;2022-10-19T13:43:58;2.27;;;1.83;;
22172;SDS011;11252;50.596;17.648;2022-10-19T13:49:41;4.93;;;1.83;;
22172;SDS011;11252;50.596;17.648;2022-10-19T14:07:06;5.73;;;1.77;;
22172;SDS011;11252;50.596;17.648;2022-10-19T14:12:24;5.83;;;1.50;;
22172;SDS011;11252;50.596;17.648;2022-10-19T14:14:54;7.70;;;2.10;;
22172;SDS011;11252;50.596;17.648;2022-10-19T14:17:23;17.23;;;4.50;;
22172;SDS011;11252;50.596;17.648;2022-10-19T14:19:57;13.93;;;3.43;;
22172;SDS011;11252;50.596;17.648;2022-10-19T14:22:26;17.03;;;3.63;;
22172;SDS011;11252;50.596;17.648;2022-10-19T14:25:00;9.20;;;2.73;;
22172;SDS011;11252;50.596;17.648;2022-10-19T14:27:33;5.57;;;1.70;;
22172;SDS011;11252;50.596;17.648;2022-10-19T14:30:02;3.87;;;1.80;;
22172;SDS011;11252;50.596;17.648;2022-10-19T14:32:31;2.83;;;1.17;;
22172;SDS011;11252;50.596;17.648;2022-10-19T14:35:19;1.67;;;1.00;;
22172;SDS011;11252;50.596;17.648;2022-10-19T14:37:50;4.37;;;1.30;;
22172;SDS011;11252;50.596;17.648;2022-10-19T14:40:31;4.10;;;1.40;;
22172;SDS011;11252;50.596;17.648;2022-10-19T14:43:18;3.57;;;2.00;;
22172;SDS011;11252;50.596;17.648;2022-10-19T14:46:01;3.93;;;1.70;;
22172;SDS011;11252;50.596;17.648;2022-10-19T14:48:48;8.40;;;2.73;;
22172;SDS011;11252;50.596;17.648;2022-10-19T14:54:04;3.67;;;1.67;;
22172;SDS011;11252;50.596;17.648;2022-10-19T14:59:19;2.97;;;1.40;;
22172;SDS011;11252;50.596;17.648;2022-10-19T15:02:13;2.27;;;0.90;;
22172;SDS011;11252;50.596;17.648;2022-10-19T15:05:00;3.13;;;1.10;;
22172;SDS011;11252;50.596;17.648;2022-10-19T15:07:47;2.00;;;1.20;;
22172;SDS011;11252;50.596;17.648;2022-10-19T15:10:19;3.67;;;1.00;;
22172;SDS011;11252;50.596;17.648;2022-10-19T15:12:59;11.60;;;1.23;;
22172;SDS011;11252;50.596;17.648;2022-10-19T15:15:31;2.53;;;1.27;;
22172;SDS011;11252;50.596;17.648;2022-10-19T15:20:29;4.20;;;1.40;;
22172;SDS011;11252;50.596;17.648;2022-10-19T15:24:04;6.73;;;2.90;;
22172;SDS011;11252;50.596;17.648;2022-10-19T15:26:25;4.70;;;2.43;;
22172;SDS011;11252;50.596;17.648;2022-10-19T15:29:05;4.47;;;1.87;;
22172;SDS011;11252;50.596;17.648;2022-10-19T15:31:45;4.70;;;2.10;;
22172;SDS011;11252;50.596;17.648;2022-10-19T15:34:28;4.83;;;2.00;;
22172;SDS011;11252;50.596;17.648;2022-10-19T15:36:57;2.70;;;1.47;;
22172;SDS011;11252;50.596;17.648;2022-10-19T15:39:30;4.13;;;1.63;;
22172;SDS011;11252;50.596;17.648;2022-10-19T15:45:29;4.07;;;1.87;;
22172;SDS011;11252;50.596;17.648;2022-10-19T15:50:45;2.63;;;1.57;;
22172;SDS011;11252;50.596;17.648;2022-10-19T15:53:15;6.83;;;2.40;;
22172;SDS011;11252;50.596;17.648;2022-10-19T15:55:43;4.57;;;1.70;;
22172;SDS011;11252;50.596;17.648;2022-10-19T15:58:11;3.27;;;1.90;;
22172;SDS011;11252;50.596;17.648;2022-10-19T16:00:40;5.27;;;2.00;;
22172;SDS011;11252;50.596;17.648;2022-10-19T16:03:07;5.37;;;1.90;;
22172;SDS011;11252;50.596;17.648;2022-10-19T16:05:35;6.60;;;2.17;;
22172;SDS011;11252;50.596;17.648;2022-10-19T16:08:03;4.80;;;2.20;;
22172;SDS011;11252;50.596;17.648;2022-10-19T16:10:36;4.60;;;2.50;;
22172;SDS011;11252;50.596;17.648;2022-10-19T16:13:04;7.03;;;2.13;;
22172;SDS011;11252;50.596;17.648;2022-10-19T16:15:31;5.53;;;2.53;;
22172;SDS011;11252;50.596;17.648;2022-10-19T16:17:59;7.57;;;2.30;;
22172;SDS011;11252;50.596;17.648;2022-10-19T16:20:28;6.80;;;2.60;;
22172;SDS011;11252;50.596;17.648;2022-10-19T16:22:56;7.67;;;2.60;;
22172;SDS011;11252;50.596;17.648;2022-10-19T16:25:25;5.70;;;2.60;;
22172;SDS011;11252;50.596;17.648;2022-10-19T16:27:53;8.37;;;3.47;;
22172;SDS011;11252;50.596;17.648;2022-10-19T16:30:21;7.07;;;2.87;;
22172;SDS011;11252;50.596;17.648;2022-10-19T16:32:48;5.87;;;2.17;;
22172;SDS011;11252;50.596;17.648;2022-10-19T16:35:16;3.37;;;2.13;;
22172;SDS011;11252;50.596;17.648;2022-10-19T16:37:45;4.83;;;2.70;;
22172;SDS011;11252;50.596;17.648;2022-10-19T16:40:14;5.37;;;2.70;;
22172;SDS011;11252;50.596;17.648;2022-10-19T16:42:41;5.53;;;2.53;;
22172;SDS011;11252;50.596;17.648;2022-10-19T16:45:09;3.40;;;1.90;;
22172;SDS011;11252;50.596;17.648;2022-10-19T16:47:37;10.77;;;4.53;;
22172;SDS011;11252;50.596;17.648;2022-10-19T16:50:05;6.83;;;4.00;;
22172;SDS011;11252;50.596;17.648;2022-10-19T16:52:36;7.13;;;3.73;;
22172;SDS011;11252;50.596;17.648;2022-10-19T16:55:05;5.00;;;3.20;;
22172;SDS011;11252;50.596;17.648;2022-10-19T16:57:34;7.63;;;4.00;;
22172;SDS011;11252;50.596;17.648;2022-10-19T17:00:02;6.47;;;3.40;;
22172;SDS011;11252;50.596;17.648;2022-10-19T17:02:32;6.77;;;3.30;;
22172;SDS011;11252;50.596;17.648;2022-10-19T17:04:59;8.17;;;3.33;;
22172;SDS011;11252;50.596;17.648;2022-10-19T17:07:28;6.43;;;3.53;;
22172;SDS011;11252;50.596;17.648;2022-10-19T17:09:58;7.87;;;3.50;;
22172;SDS011;11252;50.596;17.648;2022-10-19T17:12:25;5.53;;;2.97;;
22172;SDS011;11252;50.596;17.648;2022-10-19T17:14:53;6.93;;;3.13;;
22172;SDS011;11252;50.596;17.648;2022-10-19T17:17:42;6.53;;;3.20;;
22172;SDS011;11252;50.596;17.648;2022-10-19T17:20:09;7.83;;;3.50;;
22172;SDS011;11252;50.596;17.648;2022-10-19T17:22:37;5.50;;;3.27;;
22172;SDS011;11252;50.596;17.648;2022-10-19T17:25:06;4.30;;;2.93;;
22172;SDS011;11252;50.596;17.648;2022-10-19T17:27:33;8.13;;;3.30;;
22172;SDS011;11252;50.596;17.648;2022-10-19T17:30:01;7.20;;;3.70;;
22172;SDS011;11252;50.596;17.648;2022-10-19T17:32:28;5.47;;;2.70;;
22172;SDS011;11252;50.596;17.648;2022-10-19T17:34:55;4.87;;;2.40;;
22172;SDS011;11252;50.596;17.648;2022-10-19T17:37:23;4.97;;;3.20;;
22172;SDS011;11252;50.596;17.648;2022-10-19T17:39:51;4.47;;;3.13;;
22172;SDS011;11252;50.596;17.648;2022-10-19T17:42:19;8.07;;;2.90;;
22172;SDS011;11252;50.596;17.648;2022-10-19T17:44:47;7.17;;;3.80;;
22172;SDS011;11252;50.596;17.648;2022-10-19T17:47:20;7.67;;;4.20;;
22172;SDS011;11252;50.596;17.648;2022-10-19T17:49:49;6.40;;;4.23;;
22172;SDS011;11252;50.596;17.648;2022-10-19T17:52:23;6.77;;;4.13;;